TAF and METAR

METAR for Inca Manco Capac Airport

SPJL 141500Z 32005KT CAVOK 14/01 Q1036 RMK PP000
Report created 14. des 16:00
wind 5 knots from NW (320°) Clear sky Temperature 14° with dewpoint at 1° (Humidity 41.14%) Pressure 1036 hPa

TAF for Inca Manco Capac Airport

TAF SPJL 141120Z 1412/1512 04005KT CAVOK TX20/1419Z TN04/1510Z FM141800 12008KT 9999 SCT020 FM150000 18005KT CAVOK
Report created 14. des 12:20

between 14. des 13:00 - 15. des 13:00

wind 5 knots from NE (040°) Clear sky Max temperature 20° expected today at around 20 o'clock Min temperature 04° expected tomorrow at around 11 o'clock

From 14. des 19:00

wind 8 knots from ESE (120°) visibility > 10km scattered clouds (~50% cover) at 2000 feet

From 15. des 01:00

wind 5 knots from S (180°) Clear sky
Inca Manco Capac Airport in Peru at 3827m

Latest 5 airports